Historique des stations

Station météo de Les Bordes

Altitude de la station : 154m m







Données météorologiques pour le 26/05/2022
Date
Heure
Températures Humidité Point de rosée Vitesse
du vent
Direction Rafales Windchill Pression Pluviométrie
Cumul
Date
Heure
Températures Humidité Point de rosée Vitesse
du vent
Direction Rafales Windchill Pression Pluviométrie
Cumul
26/05/2022 12:0017.6 °C75 %13.1 °C-3 km/h17.61028 hPa0.0 mm
26/05/2022 11:4017.3 °C76 %13.1 °C-SO6 km/h17.31028 hPa0.0 mm
26/05/2022 11:3016.5 °C82 %13.4 °C-OSO5 km/h16.51028 hPa0.0 mm
26/05/2022 11:1015.6 °C84 %12.9 °C-OSO3 km/h15.61028 hPa0.0 mm
26/05/2022 11:0015.4 °C84 %12.7 °C-ONO3 km/h15.41028 hPa0.0 mm
26/05/2022 10:4015.3 °C84 %12.6 °C-OSO2 km/h15.31027 hPa0.0 mm
26/05/2022 10:3015.1 °C84 %12.4 °C-OSO3 km/h15.11027 hPa0.0 mm
26/05/2022 10:1014.9 °C85 %12.4 °C-OSO3 km/h14.91027 hPa0.0 mm
26/05/2022 10:0014.9 °C86 %12.6 °C-O2 km/h14.91027 hPa0.0 mm
26/05/2022 09:4014.8 °C85 %12.3 °C-OSO2 km/h14.81027 hPa0.0 mm
26/05/2022 09:3014.9 °C85 %12.4 °C-ONO3 km/h14.91027 hPa0.0 mm
26/05/2022 09:1014.8 °C86 %12.5 °C-OSO3 km/h14.81027 hPa0.0 mm
26/05/2022 09:0014.5 °C87 %12.4 °C-OSO3 km/h14.51027 hPa0.0 mm
26/05/2022 08:4014.3 °C87 %12.1 °C1 km/hOSO5 km/h14.31027 hPa0.0 mm
26/05/2022 08:3014.1 °C88 %12.2 °C1 km/hOSO3 km/h14.11026 hPa0.0 mm
26/05/2022 08:1013.9 °C88 %11.9 °C2 km/hOSO6 km/h13.91026 hPa0.0 mm
26/05/2022 08:0013.7 °C88 %11.8 °C2 km/hOSO8 km/h13.71026 hPa0.0 mm
26/05/2022 07:4013.6 °C88 %11.7 °C1 km/hOSO6 km/h13.61026 hPa0.0 mm
26/05/2022 07:3013.5 °C89 %11.7 °C1 km/hOSO5 km/h13.51026 hPa0.0 mm
26/05/2022 07:1013.4 °C89 %11.6 °C-OSO3 km/h13.41026 hPa0.0 mm
26/05/2022 07:0013.2 °C89 %11.4 °C-SO2 km/h13.21025 hPa0.0 mm
26/05/2022 06:4013.1 °C90 %11.5 °C---13.11025 hPa0.0 mm
26/05/2022 06:3013.0 °C90 %11.4 °C-SO2 km/h13.01025 hPa0.0 mm
26/05/2022 06:1012.8 °C90 %11.2 °C-OSO2 km/h12.81025 hPa0.0 mm
26/05/2022 06:0012.8 °C90 %11.2 °C-SO3 km/h12.81025 hPa0.0 mm
26/05/2022 05:4012.9 °C90 %11.3 °C-SSO3 km/h12.91025 hPa0.0 mm
26/05/2022 05:3013.1 °C89 %11.3 °C-SO3 km/h13.11025 hPa0.0 mm
26/05/2022 05:1012.9 °C89 %11.2 °C-SO8 km/h12.91025 hPa0.0 mm
26/05/2022 05:0012.7 °C89 %10.9 °C-SO5 km/h12.71025 hPa0.0 mm
26/05/2022 04:4012.1 °C90 %10.5 °C-SSO2 km/h12.11025 hPa0.0 mm
26/05/2022 04:3011.8 °C90 %10.2 °C1 km/hOSO3 km/h11.81025 hPa0.0 mm
26/05/2022 04:1011.5 °C89 %9.7 °C1 km/hSO5 km/h11.51025 hPa0.0 mm
26/05/2022 04:0011.4 °C89 %9.7 °C1 km/hSO5 km/h11.41025 hPa0.0 mm
26/05/2022 03:4011.4 °C89 %9.6 °C1 km/hSO5 km/h11.41025 hPa0.0 mm
26/05/2022 03:3011.3 °C89 %9.6 °C1 km/hSO5 km/h11.31025 hPa0.0 mm
26/05/2022 03:1011.4 °C89 %9.6 °C-SO5 km/h11.41025 hPa0.0 mm
26/05/2022 03:0011.4 °C88 %9.5 °C-SO2 km/h11.41025 hPa0.0 mm
26/05/2022 02:4012.1 °C86 %9.8 °C-SSO2 km/h12.11025 hPa0.0 mm
26/05/2022 02:3012.7 °C84 %10.0 °C-SO3 km/h12.71025 hPa0.0 mm
26/05/2022 01:4014.2 °C79 %10.6 °C-SO3 km/h14.21025 hPa0.2 mm
26/05/2022 01:3014.6 °C78 %10.8 °C-OSO5 km/h14.61025 hPa0.2 mm
26/05/2022 01:1014.8 °C77 %10.8 °C-OSO2 km/h14.81025 hPa0.2 mm
26/05/2022 01:0015.2 °C76 %11.0 °C-SO6 km/h15.21025 hPa0.2 mm
26/05/2022 00:4015.2 °C76 %11.0 °C-3 km/h15.21025 hPa0.2 mm
26/05/2022 00:3015.2 °C75 %10.8 °C-SO3 km/h15.21025 hPa0.2 mm
26/05/2022 00:1015.1 °C75 %10.7 °C-SO3 km/h15.11024 hPa0.2 mm
26/05/2022 00:0015.2 °C73 %10.4 °C-OSO8 km/h15.21024 hPa0.2 mm


Minima :

Température : 11.3 °C
Humidité : 73 %
Point de rosée : 9.5 °C
Vent moyen : 1 km/h
Windchill : 11.3
Pression atm. : 1024 hPa
Maxima :

Température : 17.6 °C
Humidité : 90 %
Point de rosée : 13.4 °C
Vent moyen : 2 km/h
Windchill : 17.6
Pression atm. : 1028 hPa
Rafales max : 8 km/h
Cumul de pluie sur 24H : 0.2 mm

Les Bordes est une commune du département Indre (36).
La station météorologique du réseau de l'association la plus proche de Les Bordes est celle de Issoudun



Icône Facebook Association Météo Centre Icône Twitter Association Météo Centre Icône Chaîne Youtube Association Météo Centre Icône contact Association Météo Centre Icône Insta Association Météo Centre